Latest Weather Observations for Hillarys Point Boat Harbour

IDW60901

Issued at 9:55 pm WST Saturday 22 November 2014 (issued every 10 minutes, with the page automatically refreshed every 10 minutes)

About weather observations | Map of Perth area stations | Latest observations for Perth area | Other Formats
Station Details ID: 009265 Name: HILLARYS BOAT HARBOUR NTC AWS Lat: -31.83 Lon: 115.74 Height: 0.0 m
Data from the previous 72 hours. | See also: Recent months for locations in Western Australia
Date/Time
WST
Tmp

°C
App
Tmp
°C
Dew
Point
°C
Rel
Hum
%
Delta-T

°C
Wind Press
QNH
hPa
Press
MSL
hPa
Rain
since
9 am
mm
Dir
 
Spd
km/h
Gust
km/h
Spd
kts
Gust
kts
22/09:30pm 18.3 - - - - SW 20 30 11 16 1015.3 1015.3 -
22/09:00pm 18.4 - - - - SW 17 24 9 13 1015.1 1015.1 -
22/08:30pm 18.4 - - - - SW 19 28 10 15 1015.1 1015.1 -
22/08:00pm 18.5 - - - - SW 17 26 9 14 1015.0 1015.0 -
22/07:30pm 18.5 - - - - SW 19 26 10 14 1014.7 1014.7 -
22/07:00pm 18.7 - - - - SW 17 24 9 13 1014.7 1014.7 -
22/06:30pm 18.7 - - - - SW 19 28 10 15 1014.5 1014.5 -
22/06:00pm 19.0 - - - - SW 19 24 10 13 1014.3 1014.3 -
22/05:30pm 19.2 - - - - SW 19 24 10 13 1014.1 1014.1 -
22/05:00pm 18.9 - - - - SW 19 26 10 14 1014.1 1014.1 -
22/04:30pm 19.6 - - - - SW 17 26 9 14 1014.1 1014.1 -
22/04:00pm 19.4 - - - - WSW 19 26 10 14 1014.1 1014.1 -
22/03:30pm 19.4 - - - - SW 19 26 10 14 1014.0 1014.0 -
22/03:00pm 19.2 - - - - SW 20 28 11 15 1013.9 1013.9 -
22/02:30pm 19.1 - - - - SW 19 26 10 14 1014.0 1014.0 -
22/02:00pm 19.8 - - - - SW 15 24 8 13 1014.1 1014.1 -
22/01:30pm 19.7 - - - - SW 15 22 8 12 1014.2 1014.2 -
22/01:00pm 19.3 - - - - SW 13 19 7 10 1014.2 1014.2 -
22/12:30pm 19.4 - - - - SW 15 22 8 12 1014.2 1014.2 -
22/12:00pm 18.9 - - - - SW 15 20 8 11 1014.3 1014.3 -
22/11:30am 19.8 - - - - SW 13 22 7 12 1014.2 1014.2 -
22/11:00am 19.5 - - - - SSW 11 22 6 12 1014.1 1014.1 -
22/10:30am 19.3 - - - - SW 13 22 7 12 1014.2 1014.2 -
22/10:00am 18.7 - - - - SSW 9 19 5 10 1014.2 1014.2 -
22/09:30am 18.6 - - - - SSW 11 22 6 12 1014.2 1014.2 -
22/09:00am 18.9 - - - - SSW 11 22 6 12 1014.0 1014.0 -
22/08:30am 18.6 - - - - SSW 7 15 4 8 1013.8 1013.8 -
22/08:00am 18.4 - - - - SSW 7 15 4 8 1013.8 1013.8 -
22/07:30am 17.5 - - - - SSW 7 22 4 12 1013.6 1013.6 -
22/07:00am 17.3 - - - - SSW 7 19 4 10 1013.3 1013.3 -
22/06:30am 16.9 - - - - SSW 11 30 6 16 1013.0 1013.0 -
22/06:00am 17.1 - - - - S 6 13 3 7 1012.9 1012.9 -
22/05:30am 17.0 - - - - S 9 22 5 12 1012.7 1012.7 -
22/05:00am 17.8 - - - - SW 11 20 6 11 1012.3 1012.3 -
22/04:30am 17.4 - - - - SW 11 19 6 10 1012.1 1012.1 -
22/04:00am 17.2 - - - - SSW 13 26 7 14 1012.1 1012.1 -
22/03:30am 17.3 - - - - SSW 15 26 8 14 1011.9 1011.9 -
22/03:00am 17.5 - - - - SW 13 22 7 12 1011.9 1011.9 -
22/02:30am 17.5 - - - - SW 15 26 8 14 1011.8 1011.8 -
22/02:00am 18.2 - - - - SW 13 22 7 12 1011.8 1011.8 -
22/01:30am 18.3 - - - - SW 17 24 9 13 1011.9 1011.9 -
22/01:00am 18.4 - - - - WSW 20 28 11 15 1012.0 1012.0 -
22/12:30am 18.9 - - - - SW 13 24 7 13 1012.2 1012.2 -
22/12:00am 19.0 - - - - WSW 15 22 8 12 1012.2 1012.2 -
 
Date/Time
WST
Tmp

°C
App
Tmp
°C
Dew
Point
°C
Rel
Hum
%
Delta-T

°C
Wind Press
QNH
hPa
Press
MSL
hPa
Rain
since
9 am
mm
Dir
 
Spd
km/h
Gust
km/h
Spd
kts
Gust
kts
21/11:30pm 18.6 - - - - SW 9 15 5 8 1012.5 1012.5 -
21/11:00pm 18.5 - - - - SW 13 19 7 10 1012.6 1012.6 -
21/10:30pm 18.5 - - - - SW 13 24 7 13 1012.7 1012.7 -
21/10:00pm 18.7 - - - - SW 17 24 9 13 1012.8 1012.8 -
21/09:30pm 18.6 - - - - SW 17 24 9 13 1012.9 1012.9 -
21/09:00pm 18.5 - - - - SW 19 26 10 14 1012.8 1012.8 -
21/08:30pm 18.8 - - - - WSW 13 20 7 11 1012.5 1012.5 -
21/08:00pm 18.8 - - - - WSW 15 19 8 10 1012.4 1012.4 -
21/07:30pm 18.8 - - - - WSW 15 22 8 12 1012.3 1012.3 -
21/07:00pm 18.9 - - - - WSW 17 22 9 12 1012.2 1012.2 -
21/06:30pm 18.9 - - - - WSW 15 20 8 11 1012.0 1012.0 -
21/06:00pm 18.9 - - - - WSW 15 20 8 11 1011.8 1011.8 -
21/05:30pm 19.0 - - - - WSW 19 24 10 13 1011.8 1011.8 -
21/05:00pm 19.3 - - - - SW 17 24 9 13 1011.5 1011.5 -
21/04:30pm 19.1 - - - - SW 19 28 10 15 1011.8 1011.8 -
21/04:00pm 19.3 - - - - WSW 17 28 9 15 1012.0 1012.0 -
21/03:30pm 19.3 - - - - SW 19 28 10 15 1012.0 1012.0 -
21/03:00pm 19.4 - - - - WSW 19 26 10 14 1011.9 1011.9 -
21/02:30pm 19.4 - - - - WSW 17 24 9 13 1011.9 1011.9 -
21/02:00pm 19.5 - - - - WSW 19 24 10 13 1011.9 1011.9 -
21/01:30pm 19.8 - - - - SW 17 22 9 12 1012.0 1012.0 -
21/01:00pm 19.6 - - - - SW 19 24 10 13 1012.0 1012.0 -
21/12:30pm 19.4 - - - - WSW 19 26 10 14 1012.3 1012.3 -
21/12:00pm 19.2 - - - - SW 19 26 10 14 1012.5 1012.5 -
21/11:30am 19.2 - - - - SW 13 20 7 11 1012.6 1012.6 -
21/11:00am 19.0 - - - - SW 19 26 10 14 1012.6 1012.6 -
21/10:30am 19.3 - - - - WSW 17 26 9 14 1012.5 1012.5 -
21/10:00am 19.4 - - - - WSW 19 26 10 14 1012.6 1012.6 -
21/09:30am 18.2 - - - - WSW 9 15 5 8 1012.7 1012.7 -
21/09:00am 19.0 - - - - WSW 19 26 10 14 1012.4 1012.4 -
21/08:30am 19.1 - - - - W 15 24 8 13 1012.3 1012.3 -
21/08:00am 18.9 - - - - W 15 24 8 13 1012.1 1012.1 -
21/07:30am 18.1 - - - - WSW 13 20 7 11 1011.9 1011.9 -
21/07:00am 17.3 - - - - SW 22 33 12 18 1011.7 1011.7 -
21/06:30am 19.6 - - - - W 19 28 10 15 1011.2 1011.2 -
21/06:00am 19.4 - - - - W 19 30 10 16 1011.0 1011.0 -
21/05:30am 19.3 - - - - W 17 24 9 13 1010.8 1010.8 -
21/05:00am 19.4 - - - - W 17 24 9 13 1010.7 1010.7 -
21/04:30am 18.8 - - - - W 19 28 10 15 1010.6 1010.6 -
21/04:00am 19.2 - - - - W 17 26 9 14 1010.6 1010.6 -
21/03:30am 19.2 - - - - W 15 24 8 13 1010.5 1010.5 -
21/03:00am 19.2 - - - - W 19 28 10 15 1010.5 1010.5 -
21/02:30am 19.2 - - - - W 19 26 10 14 1010.5 1010.5 -
21/02:00am 19.3 - - - - W 19 26 10 14 1010.6 1010.6 -
21/01:30am 19.3 - - - - W 19 26 10 14 1011.0 1011.0 -
21/01:00am 18.9 - - - - W 19 28 10 15 1011.2 1011.2 -
21/12:30am 19.4 - - - - W 19 26 10 14 1011.5 1011.5 -
21/12:00am 19.3 - - - - W 19 28 10 15 1011.8 1011.8 -
 
Date/Time
WST
Tmp

°C
App
Tmp
°C
Dew
Point
°C
Rel
Hum
%
Delta-T

°C
Wind Press
QNH
hPa
Press
MSL
hPa
Rain
since
9 am
mm
Dir
 
Spd
km/h
Gust
km/h
Spd
kts
Gust
kts
20/11:30pm 19.4 - - - - W 17 26 9 14 1012.1 1012.1 -
20/11:00pm 19.5 - - - - W 17 26 9 14 1012.3 1012.3 -
20/10:30pm 19.6 - - - - W 17 24 9 13 1012.5 1012.5 -
20/10:00pm 19.6 - - - - W 17 28 9 15 1012.7 1012.7 -
20/09:30pm 19.6 - - - - W 17 26 9 14 1012.8 1012.8 -
20/09:00pm 19.6 - - - - W 17 26 9 14 1012.9 1012.9 -
20/08:30pm 19.5 - - - - W 15 22 8 12 1012.9 1012.9 -
20/08:00pm 19.5 - - - - W 15 24 8 13 1012.8 1012.8 -
20/07:30pm 19.6 - - - - W 15 24 8 13 1012.5 1012.5 -
20/07:00pm 19.6 - - - - W 15 24 8 13 1012.6 1012.6 -
20/06:30pm 19.9 - - - - W 19 26 10 14 1012.5 1012.5 -
20/06:00pm 19.9 - - - - W 17 26 9 14 1012.4 1012.4 -
20/05:30pm 20.1 - - - - W 19 28 10 15 1012.4 1012.4 -
20/05:00pm 19.8 - - - - W 19 28 10 15 1012.3 1012.3 -
20/04:30pm 20.1 - - - - W 17 26 9 14 1012.4 1012.4 -
20/04:00pm 20.2 - - - - W 17 24 9 13 1012.5 1012.5 -
20/03:30pm 20.2 - - - - W 17 28 9 15 1012.5 1012.5 -
20/03:00pm 20.3 - - - - W 19 30 10 16 1012.7 1012.7 -
20/02:30pm 20.2 - - - - W 19 28 10 15 1013.0 1013.0 -
20/02:00pm 19.1 - - - - WNW 13 22 7 12 1013.3 1013.3 -
20/01:30pm 18.5 - - - - WNW 15 26 8 14 1013.5 1013.5 -
20/01:00pm 18.9 - - - - W 17 26 9 14 1013.6 1013.6 -
20/12:30pm 18.9 - - - - W 17 28 9 15 1013.7 1013.7 -
20/12:00pm 18.9 - - - - W 28 41 15 22 1014.1 1014.1 -
20/11:30am 20.4 - - - - NW 19 33 10 18 1014.1 1014.1 -
20/11:00am 20.4 - - - - NW 17 32 9 17 1014.1 1014.1 -
20/10:30am 20.4 - - - - NW 17 28 9 15 1014.4 1014.4 -
20/10:00am 20.3 - - - - NW 15 26 8 14 1014.4 1014.4 -
20/09:30am 20.1 - - - - NW 15 28 8 15 1014.7 1014.7 -
20/09:00am 19.4 - - - - NNW 17 30 9 16 1014.8 1014.8 -
20/08:30am 18.7 - - - - NNW 15 24 8 13 1014.7 1014.7 -
20/08:00am 18.7 - - - - NNW 13 22 7 12 1014.6 1014.6 -
20/07:30am 18.6 - - - - NNW 13 20 7 11 1014.4 1014.4 -
20/07:00am 18.0 - - - - N 11 19 6 10 1014.1 1014.1 -
20/06:30am 17.5 - - - - N 7 11 4 6 1013.7 1013.7 -
20/06:00am 16.3 - - - - NNE 7 11 4 6 1013.4 1013.4 -
20/05:30am 15.6 - - - - NE 7 9 4 5 1013.0 1013.0 -
20/05:00am 15.6 - - - - NNE 7 11 4 6 1012.5 1012.5 -
20/04:30am 15.6 - - - - NNE 7 13 4 7 1012.2 1012.2 -
20/04:00am 15.6 - - - - NE 6 7 3 4 1012.3 1012.3 -
20/03:30am 15.5 - - - - NE 6 9 3 5 1012.3 1012.3 -
20/03:00am 15.6 - - - - NE 6 7 3 4 1012.5 1012.5 -
20/02:30am 16.1 - - - - NE 6 9 3 5 1012.9 1012.9 -
20/02:00am 16.3 - - - - NE 6 9 3 5 1013.4 1013.4 -
20/01:30am 16.5 - - - - NE 4 7 2 4 1013.8 1013.8 -
20/01:00am 16.7 - - - - NE 4 7 2 4 1014.3 1014.3 -
20/12:30am 17.3 - - - - ENE 4 7 2 4 1014.9 1014.9 -
20/12:00am 18.8 - - - - W 4 7 2 4 1015.3 1015.3 -
 
Date/Time
WST
Tmp

°C
App
Tmp
°C
Dew
Point
°C
Rel
Hum
%
Delta-T

°C
Wind Press
QNH
hPa
Press
MSL
hPa
Rain
since
9 am
mm
Dir
 
Spd
km/h
Gust
km/h
Spd
kts
Gust
kts
19/11:30pm 18.9 - - - - WSW 6 9 3 5 1015.5 1015.5 -
19/11:00pm 19.0 - - - - SW 6 11 3 6 1015.8 1015.8 -
19/10:30pm 19.0 - - - - SW 7 11 4 6 1016.0 1016.0 -
19/10:00pm 19.0 - - - - SW 7 11 4 6 1016.2 1016.2 -

Latest Capital City Observations: Canberra | Sydney | Melbourne | Brisbane | Adelaide | Perth | Hobart | Darwin

Other Formats:

Comma delimited format used in spreadsheet applications
http://www.bom.gov.au/fwo/IDW60901/IDW60901.95605.axf

JavaScript Object Notation format (JSON) in row-major order
http://www.bom.gov.au/fwo/IDW60901/IDW60901.95605.json